createdAt,value
2017-09-03T00:00:15.603Z,2.80
2017-09-03T00:02:43.183Z,2.53
2017-09-03T00:05:10.671Z,3.10
2017-09-03T00:07:38.142Z,2.77
2017-09-03T00:10:05.613Z,1.67
2017-09-03T00:12:33.097Z,2.43
2017-09-03T00:15:01.342Z,3.73
2017-09-03T00:17:28.815Z,3.73
2017-09-03T00:19:56.295Z,3.70
2017-09-03T00:22:23.780Z,6.10
2017-09-03T00:24:51.255Z,1.63
2017-09-03T00:27:18.729Z,3.40
2017-09-03T00:29:46.202Z,2.70
2017-09-03T00:32:13.711Z,2.50
2017-09-03T00:34:41.194Z,2.87
2017-09-03T00:37:08.681Z,4.50
2017-09-03T00:39:36.158Z,2.73
2017-09-03T00:42:03.647Z,1.93
2017-09-03T00:44:31.127Z,5.70
2017-09-03T00:46:58.603Z,6.70
2017-09-03T00:49:26.090Z,4.43
2017-09-03T00:51:53.576Z,8.63
2017-09-03T00:54:21.057Z,3.67
2017-09-03T00:56:48.543Z,5.27
2017-09-03T00:59:16.026Z,5.77
2017-09-03T01:01:43.511Z,3.77
2017-09-03T01:04:10.999Z,4.50
2017-09-03T01:06:38.487Z,3.40
2017-09-03T01:09:05.966Z,5.00
2017-09-03T01:11:33.456Z,3.50
2017-09-03T01:14:00.935Z,6.33
2017-09-03T01:16:28.415Z,3.20
2017-09-03T01:18:55.904Z,5.30
2017-09-03T01:21:23.447Z,4.87
2017-09-03T01:23:50.917Z,5.13
2017-09-03T01:26:18.404Z,4.73
2017-09-03T01:28:45.886Z,4.30
2017-09-03T01:31:13.379Z,5.10
2017-09-03T01:33:40.863Z,4.90
2017-09-03T01:36:08.352Z,6.37
2017-09-03T01:38:35.835Z,6.50
2017-09-03T01:41:03.308Z,6.80
2017-09-03T01:43:30.799Z,6.23
2017-09-03T01:45:58.280Z,7.67
2017-09-03T01:48:25.759Z,7.13
2017-09-03T01:50:53.238Z,6.00
2017-09-03T01:53:20.719Z,7.30
2017-09-03T01:55:48.207Z,5.80
2017-09-03T01:58:15.695Z,5.67
2017-09-03T02:00:43.162Z,12.73
2017-09-03T02:03:10.638Z,7.07
2017-09-03T02:05:38.111Z,5.33
2017-09-03T02:08:05.581Z,9.87
2017-09-03T02:10:33.059Z,7.00
2017-09-03T02:13:00.548Z,5.13
2017-09-03T02:15:28.017Z,5.23
2017-09-03T02:17:55.493Z,6.77
2017-09-03T02:20:22.992Z,5.57
2017-09-03T02:22:50.469Z,4.83
2017-09-03T02:25:17.938Z,6.33
2017-09-03T02:27:45.410Z,5.00
2017-09-03T02:30:12.885Z,6.13
2017-09-03T02:32:40.366Z,4.27
2017-09-03T02:35:07.856Z,4.63
2017-09-03T02:37:35.466Z,4.80
2017-09-03T02:40:02.954Z,4.30
2017-09-03T02:42:30.430Z,7.07
2017-09-03T02:44:57.914Z,7.60
2017-09-03T02:47:25.403Z,7.23
2017-09-03T02:49:52.883Z,6.73
2017-09-03T02:52:21.129Z,6.27
2017-09-03T02:54:48.611Z,6.80
2017-09-03T02:57:16.094Z,8.73
2017-09-03T02:59:43.583Z,8.10
2017-09-03T03:02:11.062Z,7.20
2017-09-03T03:04:38.542Z,6.57
2017-09-03T03:07:06.040Z,8.10
2017-09-03T03:09:33.513Z,4.83
2017-09-03T03:12:00.994Z,5.33
2017-09-03T03:14:28.487Z,8.37
2017-09-03T03:16:56.063Z,6.47
2017-09-03T03:19:23.540Z,8.53
2017-09-03T03:21:51.018Z,6.53
2017-09-03T03:24:18.507Z,10.80
2017-09-03T03:26:45.991Z,5.63
2017-09-03T03:29:13.461Z,5.03
2017-09-03T03:31:40.945Z,11.77
2017-09-03T03:34:08.443Z,6.13
2017-09-03T03:36:35.922Z,5.37
2017-09-03T03:39:03.403Z,5.83
2017-09-03T03:41:30.873Z,6.70
2017-09-03T03:43:58.354Z,4.83
2017-09-03T03:46:25.834Z,5.77
2017-09-03T03:48:53.310Z,6.33
2017-09-03T03:51:20.786Z,8.60
2017-09-03T03:53:48.263Z,4.80
2017-09-03T03:56:15.739Z,5.67
2017-09-03T03:58:43.209Z,5.37
2017-09-03T04:01:10.691Z,4.17
2017-09-03T04:03:38.948Z,8.23
2017-09-03T04:06:06.431Z,2.90
2017-09-03T04:08:33.917Z,6.03
2017-09-03T04:11:01.410Z,3.60
2017-09-03T04:13:28.904Z,5.20
2017-09-03T04:15:56.382Z,3.10
2017-09-03T04:18:23.862Z,3.73
2017-09-03T04:20:51.337Z,2.90
2017-09-03T04:23:18.819Z,3.90
2017-09-03T04:25:46.302Z,6.37
2017-09-03T04:28:13.786Z,4.80
2017-09-03T04:30:41.272Z,3.20
2017-09-03T04:33:08.754Z,3.40
2017-09-03T04:35:36.225Z,3.57
2017-09-03T04:40:45.843Z,4.00
2017-09-03T04:43:13.328Z,7.03
2017-09-03T04:45:40.806Z,5.30
2017-09-03T04:48:08.288Z,3.97
2017-09-03T04:50:35.766Z,4.30
2017-09-03T04:53:03.324Z,4.80
2017-09-03T04:55:30.812Z,4.00
2017-09-03T04:57:58.292Z,4.20
2017-09-03T05:00:25.787Z,3.33
2017-09-03T05:02:53.262Z,2.90
2017-09-03T05:05:20.747Z,4.80
2017-09-03T05:07:48.226Z,4.17
2017-09-03T05:10:15.706Z,2.53
2017-09-03T05:12:43.188Z,4.67
2017-09-03T05:15:10.657Z,2.70
2017-09-03T05:17:38.144Z,4.27
2017-09-03T05:20:05.628Z,5.23
2017-09-03T05:22:33.128Z,4.47
2017-09-03T05:25:01.448Z,6.97
2017-09-03T05:27:28.971Z,3.70
2017-09-03T05:29:56.454Z,5.90
2017-09-03T05:32:23.943Z,3.17
2017-09-03T05:34:51.426Z,4.37
2017-09-03T05:37:18.903Z,2.63
2017-09-03T05:39:46.392Z,4.23
2017-09-03T05:42:13.879Z,4.03
2017-09-03T05:44:41.363Z,4.70
2017-09-03T05:47:08.847Z,6.60
2017-09-03T05:49:36.340Z,3.50
2017-09-03T05:52:03.822Z,4.80
2017-09-03T05:54:31.289Z,4.33
2017-09-03T05:56:58.775Z,2.83
2017-09-03T05:59:26.267Z,3.20
2017-09-03T06:01:53.750Z,6.50
2017-09-03T06:04:21.233Z,3.83
2017-09-03T06:06:48.709Z,3.70
2017-09-03T06:09:16.189Z,5.40
2017-09-03T06:11:43.662Z,7.90
2017-09-03T06:14:11.153Z,5.83
2017-09-03T06:16:39.402Z,5.37
2017-09-03T06:19:06.904Z,13.00
2017-09-03T06:21:34.379Z,4.30
2017-09-03T06:24:01.867Z,96.13
2017-09-03T06:26:29.360Z,88.87
2017-09-03T06:28:56.856Z,54.70
2017-09-03T06:31:24.350Z,34.80
2017-09-03T06:33:51.836Z,9.70
2017-09-03T06:36:19.335Z,45.70
2017-09-03T06:38:46.826Z,7.83
2017-09-03T06:41:14.297Z,3.53
2017-09-03T06:43:41.785Z,14.00
2017-09-03T06:46:09.259Z,7.23
2017-09-03T06:48:36.745Z,11.60
2017-09-03T06:51:04.227Z,12.70
2017-09-03T06:53:31.715Z,3.03
2017-09-03T06:55:59.190Z,2.20
2017-09-03T06:58:26.667Z,2.80
2017-09-03T07:00:54.150Z,12.10
2017-09-03T07:03:21.621Z,4.10
2017-09-03T07:05:49.117Z,3.20
2017-09-03T07:08:16.609Z,8.33
2017-09-03T07:10:44.095Z,8.20
2017-09-03T07:13:11.591Z,5.60
2017-09-03T07:15:39.068Z,2.70
2017-09-03T07:18:06.550Z,2.37
2017-09-03T07:20:34.043Z,15.03
2017-09-03T07:23:01.541Z,118.17
2017-09-03T07:25:29.031Z,28.73
2017-09-03T07:27:56.510Z,72.27
2017-09-03T07:30:24.003Z,29.50
2017-09-03T07:32:51.504Z,12.03
2017-09-03T07:35:19.018Z,5.60
2017-09-03T07:37:46.528Z,11.53
2017-09-03T07:40:14.062Z,2.87
2017-09-03T07:42:41.539Z,2.97
2017-09-03T07:45:09.026Z,3.73
2017-09-03T07:47:36.515Z,1.93
2017-09-03T07:50:04.009Z,133.27
2017-09-03T07:52:31.503Z,23.70
2017-09-03T07:54:58.999Z,119.80
2017-09-03T07:57:26.490Z,17.17
2017-09-03T07:59:53.985Z,16.93
2017-09-03T08:02:21.467Z,30.43
2017-09-03T08:04:48.956Z,33.60
2017-09-03T08:07:16.447Z,2.90
2017-09-03T08:09:43.923Z,4.80
2017-09-03T08:12:11.403Z,15.17
2017-09-03T08:14:38.891Z,10.03
2017-09-03T08:17:06.382Z,25.03
2017-09-03T08:19:33.859Z,9.83
2017-09-03T08:22:01.329Z,4.60
2017-09-03T08:24:28.816Z,3.20
2017-09-03T08:26:56.303Z,5.07
2017-09-03T08:29:23.776Z,5.03
2017-09-03T08:31:51.256Z,3.60
2017-09-03T08:34:18.729Z,5.77
2017-09-03T08:36:46.196Z,4.93
2017-09-03T08:39:13.681Z,4.10
2017-09-03T08:41:41.174Z,2.23
2017-09-03T08:44:08.659Z,2.60
2017-09-03T08:46:36.140Z,24.83
2017-09-03T08:49:03.628Z,5.13
2017-09-03T08:51:31.115Z,24.10
2017-09-03T08:53:58.596Z,28.00
2017-09-03T08:56:26.070Z,1.80
2017-09-03T08:58:53.550Z,2.37
2017-09-03T09:01:21.034Z,1.60
2017-09-03T09:03:48.505Z,2.17
2017-09-03T09:06:15.986Z,1.73
2017-09-03T09:08:43.462Z,7.40
2017-09-03T09:11:10.925Z,5.00
2017-09-03T09:13:38.411Z,1.10
2017-09-03T09:16:05.895Z,2.00
2017-09-03T09:18:33.378Z,2.30
2017-09-03T09:21:00.859Z,2.07
2017-09-03T09:23:28.338Z,15.97
2017-09-03T09:25:55.813Z,6.80
2017-09-03T09:28:23.300Z,18.47
2017-09-03T09:30:50.777Z,2.47
2017-09-03T09:33:18.253Z,24.47
2017-09-03T09:35:45.730Z,11.63
2017-09-03T09:38:13.813Z,6.30
2017-09-03T09:40:42.204Z,3.40
2017-09-03T09:43:10.322Z,6.53
2017-09-03T09:45:38.417Z,12.60
2017-09-03T09:48:06.016Z,3.30
2017-09-03T09:50:34.187Z,5.10
2017-09-03T09:53:02.114Z,22.23
2017-09-03T09:55:29.889Z,2.70
2017-09-03T09:57:58.317Z,4.13
2017-09-03T10:00:26.024Z,7.53
2017-09-03T10:02:53.865Z,4.73
2017-09-03T10:05:21.649Z,2.30
2017-09-03T10:07:49.795Z,1.00
2017-09-03T10:10:18.271Z,5.77
2017-09-03T10:12:46.416Z,9.23
2017-09-03T10:15:14.488Z,2.93
2017-09-03T10:17:42.154Z,3.63
2017-09-03T10:20:10.278Z,6.03
2017-09-03T10:22:38.717Z,6.43
2017-09-03T10:25:07.702Z,1.43
2017-09-03T10:27:36.397Z,2.97
2017-09-03T10:30:04.828Z,3.10
2017-09-03T10:32:33.081Z,2.57
2017-09-03T10:35:01.244Z,1.97
2017-09-03T10:37:29.086Z,2.43
2017-09-03T10:39:57.160Z,6.37
2017-09-03T10:42:25.468Z,2.23
2017-09-03T10:44:53.479Z,3.27
2017-09-03T10:47:21.178Z,2.07
2017-09-03T10:49:49.059Z,3.50
2017-09-03T10:52:18.305Z,2.50
2017-09-03T10:54:48.008Z,2.80
2017-09-03T10:57:16.027Z,6.97
2017-09-03T10:59:44.402Z,3.73
2017-09-03T11:02:12.550Z,5.83
2017-09-03T11:04:40.658Z,1.50
2017-09-03T11:07:08.761Z,1.13
2017-09-03T11:09:36.676Z,3.30
2017-09-03T11:12:04.791Z,2.90
2017-09-03T11:14:33.007Z,2.07
2017-09-03T11:17:01.055Z,2.40
2017-09-03T11:19:30.018Z,2.77
2017-09-03T11:21:58.193Z,3.50
2017-09-03T11:24:26.398Z,3.27
2017-09-03T11:26:54.223Z,2.03
2017-09-03T11:29:22.813Z,1.23
2017-09-03T11:31:50.829Z,3.73
2017-09-03T11:34:18.601Z,1.50
2017-09-03T11:36:46.451Z,2.40
2017-09-03T11:39:14.222Z,1.53
2017-09-03T11:41:42.068Z,3.03
2017-09-03T11:44:10.646Z,2.57
2017-09-03T11:46:39.219Z,3.70
2017-09-03T11:49:07.332Z,31.27
2017-09-03T11:51:34.817Z,5.60
2017-09-03T11:54:02.303Z,6.93
2017-09-03T11:56:29.797Z,2.50
2017-09-03T11:58:57.332Z,2.80
2017-09-03T12:01:24.809Z,1.80
2017-09-03T12:03:52.304Z,1.93
2017-09-03T12:06:19.806Z,2.07
2017-09-03T12:08:47.285Z,1.83
2017-09-03T12:11:14.782Z,1.80
2017-09-03T12:13:42.280Z,1.40
2017-09-03T12:16:09.771Z,1.90
2017-09-03T12:18:37.279Z,1.50
2017-09-03T12:21:04.771Z,2.90
2017-09-03T12:23:32.246Z,1.90
2017-09-03T12:25:59.743Z,1.33
2017-09-03T12:28:27.236Z,1.40
2017-09-03T12:30:54.724Z,1.77
2017-09-03T12:33:22.217Z,1.10
2017-09-03T12:35:49.688Z,1.40
2017-09-03T12:38:17.183Z,1.53
2017-09-03T12:40:44.757Z,1.97
2017-09-03T12:43:12.236Z,1.37
2017-09-03T12:45:39.727Z,1.53
2017-09-03T12:48:07.243Z,1.80
2017-09-03T12:50:34.727Z,1.57
2017-09-03T12:53:02.214Z,1.90
2017-09-03T12:55:29.696Z,1.73
2017-09-03T12:57:57.202Z,1.17
2017-09-03T13:00:24.683Z,1.57
2017-09-03T13:02:52.163Z,1.20
2017-09-03T13:05:19.726Z,1.30
2017-09-03T13:07:47.210Z,1.40
2017-09-03T13:10:14.685Z,1.10
2017-09-03T13:12:42.174Z,5.10
2017-09-03T13:15:09.674Z,1.40
2017-09-03T13:17:37.189Z,1.23
2017-09-03T13:20:04.674Z,3.03
2017-09-03T13:22:32.166Z,1.20
2017-09-03T13:24:59.653Z,1.23
2017-09-03T13:27:27.139Z,1.90
2017-09-03T13:29:54.629Z,2.53
2017-09-03T13:32:22.119Z,1.43
2017-09-03T13:34:49.604Z,1.47
2017-09-03T13:37:17.088Z,1.30
2017-09-03T13:39:44.579Z,2.30
2017-09-03T13:42:12.055Z,2.03
2017-09-03T13:44:39.550Z,1.20
2017-09-03T13:47:07.034Z,1.30
2017-09-03T13:49:34.510Z,1.30
2017-09-03T13:52:02.010Z,1.67
2017-09-03T13:54:29.499Z,1.30
2017-09-03T13:56:56.995Z,1.80
2017-09-03T13:59:24.481Z,1.40
2017-09-03T14:01:51.964Z,0.90
2017-09-03T14:04:19.447Z,0.93
2017-09-03T14:06:46.935Z,1.13
2017-09-03T14:09:14.445Z,1.60
2017-09-03T14:11:42.024Z,0.90
2017-09-03T14:14:09.520Z,1.03
2017-09-03T14:16:37.008Z,1.00
2017-09-03T14:19:04.507Z,4.73
2017-09-03T14:21:31.977Z,1.47
2017-09-03T14:23:59.452Z,1.10
2017-09-03T14:26:26.926Z,1.80
2017-09-03T14:28:54.406Z,1.37
2017-09-03T14:31:21.903Z,2.30
2017-09-03T14:33:49.382Z,1.27
2017-09-03T14:36:16.866Z,1.77
2017-09-03T14:38:44.363Z,2.50
2017-09-03T14:41:11.846Z,1.50
2017-09-03T14:43:39.343Z,1.10
2017-09-03T14:46:06.816Z,1.20
2017-09-03T14:48:34.303Z,1.00
2017-09-03T14:51:01.787Z,1.30
2017-09-03T14:53:29.279Z,5.50
2017-09-03T14:55:56.766Z,1.10
2017-09-03T14:58:24.250Z,2.83
2017-09-03T15:00:51.721Z,1.20
2017-09-03T15:03:19.206Z,0.90
2017-09-03T15:05:46.680Z,1.20
2017-09-03T15:08:14.157Z,1.57
2017-09-03T15:10:41.629Z,1.87
2017-09-03T15:13:09.127Z,1.27
2017-09-03T15:15:36.609Z,87.63
2017-09-03T15:18:04.140Z,157.20
2017-09-03T15:20:31.634Z,176.30
2017-09-03T15:22:59.115Z,84.30
2017-09-03T15:25:26.598Z,51.03
2017-09-03T15:27:54.194Z,83.53
2017-09-03T15:30:21.678Z,34.00
2017-09-03T15:32:49.162Z,438.07
2017-09-03T15:35:16.653Z,598.63
2017-09-03T15:37:44.147Z,303.37
2017-09-03T15:40:11.639Z,225.53
2017-09-03T15:42:39.134Z,141.77
2017-09-03T15:45:06.621Z,161.13
2017-09-03T15:47:34.107Z,70.10
2017-09-03T15:50:01.603Z,173.80
2017-09-03T15:52:29.098Z,129.50
2017-09-03T15:54:56.598Z,87.20
2017-09-03T15:57:24.098Z,55.43
2017-09-03T15:59:51.580Z,56.63
2017-09-03T16:02:19.075Z,785.00
2017-09-03T16:04:46.571Z,518.17
2017-09-03T16:07:14.159Z,178.73
2017-09-03T16:09:41.654Z,412.43
2017-09-03T16:12:09.152Z,203.80
2017-09-03T16:14:36.646Z,153.40
2017-09-03T16:17:04.138Z,58.17
2017-09-03T16:19:31.635Z,575.10
2017-09-03T16:21:59.117Z,188.73
2017-09-03T16:24:26.618Z,189.80
2017-09-03T16:26:54.102Z,130.17
2017-09-03T16:29:21.593Z,88.37
2017-09-03T16:31:49.083Z,46.37
2017-09-03T16:34:16.571Z,72.50
2017-09-03T16:36:44.065Z,69.63
2017-09-03T16:39:12.319Z,33.83
2017-09-03T16:41:39.836Z,39.87
2017-09-03T16:44:07.340Z,37.20
2017-09-03T16:46:34.857Z,39.37
2017-09-03T16:49:02.369Z,26.77
2017-09-03T16:51:29.874Z,36.77
2017-09-03T16:53:57.361Z,49.27
2017-09-03T16:56:24.856Z,37.73
2017-09-03T16:58:52.338Z,25.90
2017-09-03T17:01:19.826Z,48.97
2017-09-03T17:03:47.334Z,566.70
2017-09-03T17:06:14.996Z,117.20
2017-09-03T17:08:48.022Z,70.97
2017-09-03T17:11:16.148Z,47.77
2017-09-03T17:13:44.462Z,30.40
2017-09-03T17:16:12.035Z,28.13
2017-09-03T17:18:41.244Z,32.80
2017-09-03T17:21:08.859Z,26.60
2017-09-03T17:23:36.337Z,28.37
2017-09-03T17:26:05.727Z,27.80
2017-09-03T17:28:35.036Z,26.00
2017-09-03T17:31:05.087Z,25.77
2017-09-03T17:33:32.958Z,19.33
2017-09-03T17:36:15.872Z,8.73
2017-09-03T17:38:46.007Z,14.97
2017-09-03T17:44:16.512Z,7.67
2017-09-03T17:46:55.070Z,19.67
2017-09-03T17:49:27.059Z,20.70
2017-09-03T17:51:55.912Z,18.60
2017-09-03T17:54:24.030Z,22.40
2017-09-03T17:56:52.792Z,10.63
2017-09-03T17:59:22.409Z,17.80
2017-09-03T18:01:50.533Z,10.10
2017-09-03T18:04:19.794Z,12.30
2017-09-03T18:06:50.531Z,4.30
2017-09-03T18:09:19.563Z,11.47
2017-09-03T18:11:49.629Z,12.90
2017-09-03T18:14:17.349Z,11.37
2017-09-03T18:16:45.498Z,7.53
2017-09-03T18:19:13.558Z,8.20
2017-09-03T18:21:41.038Z,8.97
2017-09-03T18:24:08.526Z,6.33
2017-09-03T18:26:36.033Z,6.70
2017-09-03T18:29:04.346Z,309.47
2017-09-03T18:31:33.730Z,135.63
2017-09-03T18:34:01.278Z,79.53
2017-09-03T18:36:38.687Z,58.30
2017-09-03T18:39:12.211Z,19.23
2017-09-03T18:41:39.713Z,22.60
2017-09-03T18:44:27.908Z,26.67
2017-09-03T18:46:55.471Z,23.67
2017-09-03T18:49:22.954Z,20.97
2017-09-03T18:51:50.595Z,1.97
2017-09-03T18:54:18.094Z,13.93
2017-09-03T18:56:45.589Z,8.83
2017-09-03T18:59:13.569Z,4.63
2017-09-03T19:01:41.854Z,254.63
2017-09-03T19:04:09.561Z,449.03
2017-09-03T19:06:39.526Z,324.43
2017-09-03T19:09:07.157Z,188.23
2017-09-03T19:11:34.689Z,478.17
2017-09-03T19:14:02.248Z,678.07
2017-09-03T19:16:29.755Z,441.23
2017-09-03T19:18:57.271Z,275.87
2017-09-03T19:21:26.289Z,191.17
2017-09-03T19:23:53.786Z,90.07
2017-09-03T19:26:21.295Z,52.37
2017-09-03T19:28:48.792Z,26.70
2017-09-03T19:31:17.431Z,23.60
2017-09-03T19:33:45.695Z,8.70
2017-09-03T19:36:13.206Z,583.70
2017-09-03T19:38:43.639Z,407.93
2017-09-03T19:41:11.161Z,256.80
2017-09-03T19:43:38.673Z,222.33
2017-09-03T19:46:06.173Z,168.80
2017-09-03T19:48:34.511Z,132.60
2017-09-03T19:51:02.031Z,128.87
2017-09-03T19:53:29.591Z,61.70
2017-09-03T19:55:57.100Z,437.40
2017-09-03T19:58:24.657Z,493.97
2017-09-03T20:00:52.192Z,382.80
2017-09-03T20:03:19.688Z,186.67
2017-09-03T20:05:47.583Z,107.40
2017-09-03T20:08:15.600Z,68.90
2017-09-03T20:10:43.096Z,30.83
2017-09-03T20:13:10.761Z,22.40
2017-09-03T20:15:38.254Z,12.10
2017-09-03T20:18:05.749Z,429.90
2017-09-03T20:20:33.253Z,404.30
2017-09-03T20:23:00.752Z,329.07
2017-09-03T20:25:28.237Z,157.73
2017-09-03T20:27:55.727Z,20.90
2017-09-03T20:30:23.247Z,31.23
2017-09-03T20:32:50.733Z,5.20
2017-09-03T20:35:18.237Z,19.83
2017-09-03T20:37:46.456Z,3.23
2017-09-03T20:40:13.946Z,12.60
2017-09-03T20:42:41.421Z,5.60
2017-09-03T20:45:08.925Z,9.30
2017-09-03T20:47:36.419Z,5.20
2017-09-03T20:50:03.914Z,4.00
2017-09-03T20:52:31.410Z,2.00
2017-09-03T20:54:58.923Z,2.37
2017-09-03T20:57:26.414Z,4.63
2017-09-03T20:59:53.901Z,3.20
2017-09-03T21:02:21.400Z,4.70
2017-09-03T21:04:48.889Z,3.30
2017-09-03T21:07:16.404Z,2.97
2017-09-03T21:09:43.898Z,10.53
2017-09-03T21:12:11.383Z,6.33
2017-09-03T21:14:38.930Z,8.30
2017-09-03T21:17:06.410Z,5.27
2017-09-03T21:19:33.882Z,5.07
2017-09-03T21:22:01.368Z,2.40
2017-09-03T21:24:28.847Z,5.73
2017-09-03T21:26:56.374Z,4.87
2017-09-03T21:29:23.882Z,3.33
2017-09-03T21:31:51.389Z,3.70
2017-09-03T21:34:19.001Z,4.50
2017-09-03T21:36:46.490Z,2.70
2017-09-03T21:39:13.974Z,3.07
2017-09-03T21:41:41.539Z,2.10
2017-09-03T21:44:09.154Z,2.60
2017-09-03T21:46:36.683Z,2.87
2017-09-03T21:49:04.213Z,3.03
2017-09-03T21:51:31.737Z,2.80
2017-09-03T21:53:59.318Z,3.80
2017-09-03T21:56:26.841Z,6.60
2017-09-03T21:58:54.325Z,1.90
2017-09-03T22:01:21.797Z,2.10
2017-09-03T22:03:49.291Z,2.17
2017-09-03T22:06:16.925Z,2.60
2017-09-03T22:08:44.554Z,3.30
2017-09-03T22:11:12.941Z,1.43
2017-09-03T22:13:40.574Z,1.63
2017-09-03T22:16:08.090Z,1.27
2017-09-03T22:18:35.701Z,1.47
2017-09-03T22:21:03.410Z,2.10
2017-09-03T22:23:31.179Z,1.77
2017-09-03T22:25:59.114Z,1.43
2017-09-03T22:28:26.815Z,1.77
2017-09-03T22:30:54.573Z,3.23
2017-09-03T22:33:22.181Z,2.20
2017-09-03T22:35:49.809Z,1.60
2017-09-03T22:38:17.562Z,1.03
2017-09-03T22:40:45.222Z,3.23
2017-09-03T22:43:12.830Z,1.90
2017-09-03T22:45:40.565Z,3.63
2017-09-03T22:48:08.223Z,2.13
2017-09-03T22:50:35.880Z,2.40
2017-09-03T22:53:03.494Z,1.20
2017-09-03T22:55:31.222Z,1.60
2017-09-03T22:57:58.849Z,4.60
2017-09-03T23:00:26.528Z,2.33
2017-09-03T23:02:54.158Z,1.60
2017-09-03T23:05:21.961Z,2.90
2017-09-03T23:07:49.522Z,4.30
2017-09-03T23:10:17.034Z,1.40
2017-09-03T23:12:44.521Z,4.13
2017-09-03T23:15:11.995Z,2.17
2017-09-03T23:17:39.488Z,1.70
2017-09-03T23:20:06.970Z,1.80
2017-09-03T23:22:35.317Z,2.80
2017-09-03T23:25:02.794Z,1.67
2017-09-03T23:27:30.275Z,1.10
2017-09-03T23:29:57.748Z,1.17
2017-09-03T23:32:25.233Z,1.63
2017-09-03T23:34:52.706Z,1.63
2017-09-03T23:37:20.202Z,1.70
2017-09-03T23:39:47.703Z,2.30
2017-09-03T23:42:15.201Z,1.53
2017-09-03T23:44:42.686Z,2.03
2017-09-03T23:47:10.166Z,1.60
2017-09-03T23:49:37.659Z,1.20
2017-09-03T23:52:05.142Z,1.37
2017-09-03T23:54:32.626Z,3.10
2017-09-03T23:57:00.101Z,4.93
2017-09-03T23:59:27.583Z,2.03
